Westerlo, NY (12193)

10:11 PM EDT on August 22, 2014 (GMT -0400)
Remley Lane - 1760' | Change Station
CLOSE
Current Station
Personal Weather Station
Location: Westerlo, NY
Elevation: 1760 ft
Nearby Weather Stations

Elev 1760 ft 42.58 °N, 74.07 °W | Updated 40 seconds ago

Overcast
Overcast
59.0 °F
Feels Like 59.0 °F
N
2.0
Wind Variable Wind from ESE
Gusts 4.0 mph

Today
High -- | Low -- °F
--% Chance of Precip.
Yesterday
High -- | Low -- °F
Precip. -- in
6:10 AM 7:46 PM
Waning Crescent, 6% visible
Pressure 30.09 in
Visibility 10.0 miles
Clouds Mostly Cloudy 2900 ft
Overcast 4800 ft
Dew Point 58 °F
Humidity 95%
Rainfall 0.60 in
Snow Depth Not available.
UV 0 out of 12
Pollen 3.80 out of 12
PM2.5 Moderate
Flu Activity Not available.
SPECI KALB 230204Z 35003KT 10SM BKN029 OVC048 18/16 A3009 RMK AO2 T01830161 $

More Conditions Fewer Conditions

Pressure 30.09 in
Visibility 10.0 miles
Clouds Mostly Cloudy 2900 ft
Overcast 4800 ft
Dew Point 58 °F
Humidity 95%
Rainfall 0.60 in
Snow Depth Not available.
UV 0 out of 12
Pollen 3.80 out of 12
PM2.5 Moderate
Flu Activity Not available.
SPECI KALB 230204Z 35003KT 10SM BKN029 OVC048 18/16 A3009 RMK AO2 T01830161 $

More Conditions Fewer Conditions

10-Day Weather Forecast

Almanac

Astronomy

Aug. 22, 2014 Rise Set
Actual Time 6:10 AM EDT 7:46 PM EDT
Civil Twilight 5:40 AM EDT 8:16 PM EDT
Nautical Twilight 5:04 AM EDT 8:52 PM EDT
Astronomical Twilight 4:26 AM EDT 9:30 PM EDT
Moon 3:29 AM EDT (8/22) 5:54 PM EDT (8/22)
Length of Visible Light 14h 35m
Length of Day
13h 36m
Tomorrow will be 2m 40s shorter.
Waning Crescent, 6% of the Moon is Illuminated
Today
Waning Crescent
Aug 25
New
Sep 2
First Quarter
Sep 8
Full
Sep 15
Last Quarter

Today's Extremes

State Highs State Lows

Community

WunderPhotos

Upload Photos

1,746,346 photos uploaded!

WunderBlogs® & News

Nearby

Air Quality

  Air Quality AQ Index Pollutant
Yesterday Good
OZONE
Yesterday Good
PM2.5
Current Moderate
PM2.5
Friday Good
OZONE
Friday Good
PM2.5
Saturday Good
OZONE
Saturday Good
PM2.5
Sunday Good
OZONE
Sunday Good
PM2.5
Monday Good
PM2.5
Monday Good
OZONE

Snow Depth

Station Depth Elevation
No new snow has been reported.

Earthquake Activity

City Distance Mag. Time & Date
No recent earthquake activity has been reported nearby.
Minimum magnitude displayed is 2.5.

Coastal Water Temperatures

Place Temperature
No Stations Reporting

Nearby Weather Stations